• Join FlightAware (Why Join?)
  • Login
  • US Flag 
03:24AM EDT


 

Airport Tracker/Info


-or-


 

Live Flight TrackerFlight Track Log ✈ EGF4285 ✈ 11-Jun-2013 ✈ KBWI - KORD

Flight Track Log - Related Links

Times and Time Zones

All times are in EDT time to prevent confusion due to time zone crossing. See the EGF4285 flight status page for this flight to view local times or setup timezone preferences in your user account.

Time Position Orientation Groundspeed Altitude Reporting Facility
EDT Latitude Longitude Course Direction KTS MPH feet Rate Location/Type
06:31AM 39.1833 -76.7000 218° Southwest 163 188 1,300  Level Potomac TRACON
06:32AM 39.1833 -76.7833 270° West 190 219 3,500 1,920 Climbing Potomac TRACON
06:33AM 39.2000 -77.0306 270° West  Level FlightAware Approximate
06:33AM 39.2000 -76.8500 288° West 216 249 5,200  Level Potomac TRACON
06:34AM 39.1966 -77.1534 218° Southwest  Level FlightAware Approximate
06:34AM 39.2167 -76.9333 284° West 237 273 7,100  Level Potomac TRACON
06:35AM 39.1148 -77.2200 211° Southwest  Level FlightAware Approximate
06:35AM 39.2167 -77.0167 270° West 253 291 9,000  Level Potomac TRACON
06:36AM 39.0320 -77.2846 218° Southwest  Level FlightAware Approximate
06:37AM 39.1842 -77.1903 256° West 265 305 11,700  Level Washington Center
06:38AM 39.1106 -77.2447 210° Southwest 265 305 12,900 1,260 Climbing Washington Center
06:39AM 39.0408 -77.3153 218° Southwest 295 339 14,300 1,200 Climbing Washington Center
06:40AM 39.0286 -77.4272 262° West 295 339 15,400 900 Climbing Washington Center
06:41AM 39.0208 -77.5206 264° West 307 353 16,200 960 Climbing Washington Center
06:42AM 39.0103 -77.6647 265° West 335 386 17,300 1,080 Climbing Washington Center
06:43AM 39.0019 -77.7739 264° West 347 399 18,400 900 Climbing Washington Center
06:44AM 38.9892 -77.8989 263° West 353 406 19,200 720 Climbing Washington Center
06:45AM 38.9783 -78.0294 264° West 358 412 19,900 840 Climbing Washington Center
06:46AM 38.9653 -78.1600 263° West 364 419 20,900 900 Climbing Washington Center
06:47AM 38.9622 -78.2906 268° West 369 425 21,800 900 Climbing Washington Center
06:48AM 38.9675 -78.4244 273° West 369 425 22,800 960 Climbing Washington Center
06:49AM 38.9708 -78.5553 272° West 369 425 23,800 960 Climbing Washington Center
06:50AM 38.9758 -78.6889 273° West 369 425 24,800 960 Climbing Washington Center
06:51AM 38.9783 -78.8253 271° West 369 425 25,800 540 Climbing Washington Center
06:52AM 38.9850 -78.9617 274° West 379 436 26,000 60 Climbing Washington Center
06:53AM 38.9872 -79.1036 271° West 390 449 26,000  Level Washington Center
06:54AM 38.9911 -79.2533 272° West 413 475 26,000  Level Washington Center
06:55AM 38.9969 -79.4031 273° West 419 482 26,000  Level Washington Center
06:56AM 38.9961 -79.5553 270° West 425 489 26,000  Level Washington Center
06:57AM 39.0011 -79.7158 272° West 437 503 26,000  Level Washington Center
06:59AM 39.0039 -80.0658 271° West 435 501 26,000  Level Indianapolis Center
07:00AM 39.0067 -80.2389 271° West 440 506 26,000  Level Indianapolis Center
07:01AM 39.0089 -80.3933 271° West 436 502 26,000  Level Indianapolis Center
07:02AM 39.0106 -80.5514 271° West 440 506 26,000  Level Indianapolis Center
07:03AM 39.0119 -80.7069 271° West 437 503 26,000  Level Indianapolis Center
07:04AM 39.0519 -80.8472 290° West 434 499 26,000  Level Indianapolis Center
07:05AM 39.1128 -80.9733 302° West 419 482 26,000  Level Indianapolis Center
07:06AM 39.1736 -81.0997 302° West 418 481 26,000  Level Indianapolis Center
07:07AM 39.2339 -81.2283 301° West 421 484 26,000  Level Indianapolis Center
07:08AM 39.3064 -81.3811 302° West 419 482 26,000  Level Indianapolis Center
07:09AM 39.3658 -81.5086 301° West 417 480 26,000  Level Indianapolis Center
07:10AM 39.4258 -81.6378 301° West 418 481 26,000  Level Indianapolis Center
07:11AM 39.4850 -81.7675 301° West 419 482 26,000  Level Indianapolis Center
07:12AM 39.5450 -81.8983 301° West 422 486 26,000  Level Indianapolis Center
07:13AM 39.6050 -82.0283 301° West 421 484 26,000  Level Indianapolis Center
07:14AM 39.6617 -82.1531 301° West 416 479 26,000  Level Indianapolis Center
07:15AM 39.7219 -82.2828 301° West 418 481 26,000  Level Indianapolis Center
07:16AM 39.7800 -82.4142 300° West 416 479 26,000  Level Indianapolis Center
07:17AM 39.8492 -82.5672 301° West 418 481 26,000  Level Indianapolis Center
07:18AM 39.9081 -82.6969 301° West 414 476 26,000  Level Indianapolis Center
07:19AM 39.9664 -82.8272 300° West 414 476 26,000  Level Indianapolis Center
07:20AM 40.0242 -82.9578 300° West 414 476 26,000  Level Indianapolis Center
07:21AM 40.0819 -83.0883 300° West 413 475 26,000  Level Indianapolis Center
07:22AM 40.1394 -83.2186 300° West 414 476 26,000  Level Indianapolis Center
07:23AM 40.1972 -83.3489 300° West 414 476 26,000  Level Indianapolis Center
07:24AM 40.2542 -83.4792 300° West 413 475 26,000  Level Indianapolis Center
07:25AM 40.3117 -83.6100 300° West 414 476 26,000  Level Indianapolis Center
07:26AM 40.3675 -83.7403 299° West 409 471 26,000  Level Indianapolis Center
07:27AM 40.4336 -83.8931 300° West 410 472 26,000  Level Indianapolis Center
07:28AM 40.4869 -84.0169 300° West 390 449 26,000  Level Indianapolis Center
07:29AM 40.5367 -84.1358 299° West 372 428 26,000  Level Indianapolis Center
07:30AM 40.5883 -84.2547 300° West 372 428 26,000  Level Indianapolis Center
07:31AM 40.6389 -84.3744 299° West 371 427 26,000  Level Indianapolis Center
07:32AM 40.6914 -84.4950 300° West 375 432 26,000  Level Indianapolis Center
07:34AM 40.7417 -84.6164 299° West 374 430 26,000  Level Indianapolis Center
07:34AM 40.7639 -84.6711 298° West 373 429 26,000  Level Chicago Center
07:35AM 40.8144 -84.7908 299° West 373 429 26,000  Level Chicago Center
07:36AM 40.8647 -84.9108 299° West 373 429 26,000  Level Chicago Center
07:37AM 40.9144 -85.0297 299° West 372 428 26,000  Level Chicago Center
07:38AM 40.9639 -85.1497 299° West 371 427 26,000  Level Chicago Center
07:39AM 41.0256 -85.2589 307° West 374 430 26,000  Level Chicago Center
07:40AM 41.0917 -85.3592 311° West 364 419 26,000 -300 Level Chicago Center
07:41AM 41.1753 -85.4878 311° West 381 438 25,400 -540 Descending Chicago Center
07:42AM 41.2461 -85.6058 309° West 400 460 25,000 -240 Descending Chicago Center
07:43AM 41.2639 -85.7569 279° West 413 475 25,000  Level Chicago Center
07:44AM 41.2911 -85.9056 284° West 420 483 25,000 -840 Level Chicago Center
07:45AM 41.3319 -86.0458 291° West 410 472 23,300 -2,100 Descending Chicago Center
07:46AM 41.3719 -86.1800 292° West 395 455 20,800 -2,460 Descending Chicago Center
07:47AM 41.4075 -86.3125 290° West 384 442 18,300 -2,460 Descending Chicago Center
07:48AM 41.4431 -86.4433 290° West 378 435 15,800 -2,460 Descending Chicago Center
07:49AM 41.4753 -86.5619 290° West 355 409 13,300 -1,860 Descending Chicago Center
07:50AM 41.5139 -86.7022 290° West 335 386 12,000 -660 Descending Chicago Center
07:51AM 41.5742 -86.7806 316° Northwest 335 386 12,000  Level Chicago Center
07:52AM 41.6653 -86.7964 353° North 333 383 12,000 -300 Level Chicago Center
07:53AM 41.7564 -86.8058 356° North 331 381 11,500 -540 Descending Chicago Center
07:54AM 41.8486 -86.8236 352° North 335 386 11,000 -300 Descending Chicago Center
07:56AM 41.9242 -86.9206 316° Northwest 324 373 11,000  Level Chicago Center
07:57AM 41.9619 -87.0303 295° West 327 376 11,000 -300 Level Chicago Center
07:58AM 41.9833 -87.1342 286° West 290 334 10,400 -960 Descending Chicago Center
07:59AM 41.9794 -87.2328 267° West 265 305 9,100 -1,320 Descending Chicago Center
08:00AM 41.9853 -87.3311 275° West 265 305 7,700 -1,080 Descending Chicago Center
08:01AM 41.9814 -87.4486 267° West 264 304 7,000 -1,080 Descending Chicago Center
08:02AM 41.9836 -87.5433 272° West 258 297 5,600 -1,320 Descending Chicago Center
08:03AM 41.9819 -87.6389 269° West 258 297 4,300 -1,260 Descending Chicago Center